x

Buoy A01 - Mass. Bay/stellwagen (44029) Wave Buoy

9:04 - Wed 28th Jun 2017 All times are EDT. -4 hours from GMT.

  • Sig Wave height 1.0ft
  • Peak Period 3s
  • Wind
    11mph, 13mph gusts
  • Sea Temp 60°f
  • Aire Temp 59°f
  • Sea Pressure 1015.6mb
  • Buoy A01 - Mass. Bay/stellwagen
  • Buoy A01 - Mass. Bay/stellwagen

More Historic Weather Station data

Upgrade to MSW Pro to gain access to the past 30 days of data for over 8000 Wavebouys and Weather Stations around the globe.

Join Pro

Comparision Forecast

View Surf forecast
   
mié 06/28 9:04 1ft 3s 11 13 mph 1015.6mb 60f 59f
8:04 1ft 3s 16 18 mph 1015.2mb 60f 59f
7:04 1.3ft 3s 16 18 mph 1015.2mb 60f 58f
6:04 1.3ft 3s 16 20 mph 1014.8mb 61f 58f
5:04 1.3ft 3s 13 18 mph 1014.2mb 61f 58f
4:04 1.3ft 6s 13 18 mph 1013.9mb 60f 59f
3:04 1.6ft 8s 16 18 mph 1013.4mb 60f 59f
2:04 1ft 4s 13 16 mph 1013.3mb 60f 60f
1:04 1.3ft 8s 11 13 mph 1013.9mb 60f 60f
12:04 1.3ft 5s 9 9 mph 1014.2mb 60f 60f
mar 06/27 11:04 1.3ft 3s 4 7 mph 1013.5mb 60f 60f
11:04 1ft 6s 4 7 mph 1015.7mb 61f 62f
10:04 1ft 6s 4 4 mph 1015.6mb 61f 62f
9:04 1ft 6s 7 7 mph 1015.6mb 60f 61f
8:04 1ft 8s 9 11 mph 1015.4mb 60f 61f
7:04 1ft 8s 7 7 mph 1015.5mb 60f 62f
6:04 0.7ft  -  2 2 mph 1015.3mb 60f 61f
5:04 1ft 8s 2 2 mph 1014.9mb 60f 60f
4:04 1.3ft 8s 4 4 mph 1014.8mb 60f 60f
3:04 1.3ft 8s 7 7 mph 1014.6mb 60f 61f
2:04 1.3ft 8s 7 7 mph 1014.3mb 60f 62f
1:04 1.3ft 8s 4 4 mph 1014.5mb 60f 62f
12:04 1.3ft 8s 7 7 mph 1014.9mb 60f 62f
lun 06/26 11:04 1.3ft 8s 4 7 mph 1014.4mb 60f 63f
10:04 1.3ft 6s 2 4 mph 1014.2mb 60f 64f
9:04 1.6ft 8s 7 7 mph 1013.8mb 59f 64f
8:04 2ft 8s 7 9 mph 1013.5mb 59f 64f
7:04 2ft 6s 11 13 mph 1013.3mb 60f 65f
6:04 1.3ft 8s 7 7 mph 1013.5mb 60f 65f
5:04 1ft 8s 9 11 mph 1013.2mb 60f 66f
4:04 1ft 8s 7 9 mph 1013.1mb 60f 65f
3:04 1ft 8s 9 9 mph 1013.2mb 60f 65f
2:04 1.3ft 8s 7 9 mph 1013.5mb 59f 63f
1:04 1.3ft 6s 7 7 mph 1014mb 59f 62f
12:04 1ft 8s 9 9 mph 1014.1mb 59f 63f
11:04 1.3ft 6s 9 9 mph 1014.5mb 58f 62f
10:04 1.3ft 6s 9 11 mph 1014.3mb 58f 61f
9:04 1.3ft 8s 9 11 mph 1014.2mb 58f 61f
8:04 1.6ft 8s 11 13 mph 1014.3mb 57f 60f
7:04 1.6ft 8s 11 13 mph 1014mb 57f 61f
6:04 1.3ft 8s 9 9 mph 1013.2mb 58f 60f
5:04 1.3ft 8s 9 11 mph 1012.6mb 58f 60f
4:04 1.6ft 8s 11 13 mph 1012.1mb 59f 61f
3:04 1.3ft 6s 11 13 mph 1011.9mb 59f 62f
2:04 1.6ft 8s 11 13 mph 1012.1mb 60f 61f
1:04 1.6ft 8s 11 13 mph 1012mb 60f 62f
12:04 2ft 3s 7 9 mph 1011.6mb 60f 62f
dom 06/25 11:04 1.6ft 3s 16 18 mph 1012.4mb 61f 64f
10:04 1.6ft 8s 9 11 mph 1012.1mb 61f 64f
9:04 2ft 8s 13 16 mph 1011.3mb 61f 65f
8:04 2ft 6s 11 13 mph 1011.4mb 61f 65f
7:04 2ft 8s 13 22 mph 1011.2mb 61f 66f
6:04 2.5ft 8s 13 16 mph 1010.8mb 60f 65f
5:04 2ft 8s 11 13 mph 1010.7mb 60f 67f
4:04 1ft 5s 13 16 mph 1010.8mb 61f 66f
3:04 1.6ft 8s 11 13 mph 1011.4mb 61f 66f
2:04 1.6ft 8s 4 7 mph 1011.7mb 62f 66f
1:04 1.6ft 8s 7 9 mph 1012.2mb 61f 65f
12:04 1.6ft 8s 9 9 mph 1012.6mb 61f 65f
11:04 1.3ft 6s 7 9 mph 1012.9mb 60f 64f
10:04 2ft 6s 7 9 mph 1013mb 60f 64f
9:04 2ft 11s 7 9 mph 1013.2mb 60f 63f
8:04 2ft 8s 9 9 mph 1013mb 59f 63f
7:04 1.6ft 8s 7 9 mph 1012.6mb 59f 62f
6:04 1.6ft 11s 9 11 mph 1011.5mb 59f 64f
5:04 1.3ft 8s 9 11 mph 1011.1mb 59f 63f
4:04 1.3ft 6s 9 11 mph 1010.4mb 59f 64f
3:04 1.3ft 8s 9 9 mph 1010.1mb 59f 63f
2:04 1.3ft 8s 9 9 mph 1010mb 59f 65f
1:04 1.6ft 6s 7 9 mph 1009.5mb 59f 63f
12:04 2ft 6s 7 7 mph 1009.4mb 59f 63f
sáb 06/24 11:04 2ft 6s 11 11 mph 1008.6mb 59f 65f
10:04 1.6ft 5s 9 11 mph 1008mb 59f 65f
9:04 2ft 6s 9 11 mph 1006.6mb 59f 66f
8:04 1.6ft 6s 11 11 mph 1005.5mb 60f 68f
7:04 1.6ft 8s 4 7 mph 1005mb 60f 68f
6:04 1ft 2s 11 11 mph 1003.9mb 59f 68f
5:04 1.6ft 8s 11 16 mph 1002.9mb 61f 70f
4:04 1.3ft 8s 4 7 mph 1001.9mb 61f 68f